createdAt,value
2023-01-17T00:02:08.695Z,7.92
2023-01-17T00:04:55.558Z,7.92
2023-01-17T00:07:44.122Z,7.93
2023-01-17T00:10:15.653Z,7.93
2023-01-17T00:12:49.328Z,7.93
2023-01-17T00:15:19.954Z,7.92
2023-01-17T00:17:48.958Z,7.93
2023-01-17T00:20:38.028Z,7.93
2023-01-17T00:23:40.859Z,7.95
2023-01-17T00:26:16.700Z,7.98
2023-01-17T00:28:45.881Z,7.99
2023-01-17T00:31:15.934Z,8.00
2023-01-17T00:33:44.164Z,8.01
2023-01-17T00:36:12.857Z,8.02
2023-01-17T00:38:41.573Z,8.03
2023-01-17T00:41:12.053Z,8.03
2023-01-17T00:43:59.362Z,8.02
2023-01-17T00:46:46.020Z,8.00
2023-01-17T00:49:32.904Z,8.00
2023-01-17T00:52:19.509Z,8.01
2023-01-17T00:55:06.442Z,8.02
2023-01-17T00:57:53.444Z,8.04
2023-01-17T01:00:40.800Z,8.04
2023-01-17T01:03:29.534Z,8.05
2023-01-17T01:06:16.198Z,8.04
2023-01-17T01:09:03.004Z,8.04
2023-01-17T01:11:50.486Z,8.03
2023-01-17T01:14:37.146Z,8.01
2023-01-17T01:17:23.816Z,8.01
2023-01-17T01:20:10.034Z,8.02
2023-01-17T01:22:56.323Z,8.03
2023-01-17T01:25:42.998Z,8.05
2023-01-17T01:28:31.926Z,8.08
2023-01-17T01:31:20.084Z,8.10
2023-01-17T01:33:48.677Z,8.12
2023-01-17T01:36:16.968Z,8.13
2023-01-17T01:38:45.991Z,8.12
2023-01-17T01:41:14.306Z,8.10
2023-01-17T01:43:52.498Z,8.09
2023-01-17T01:46:29.755Z,8.11
2023-01-17T01:49:25.125Z,8.12
2023-01-17T01:51:59.007Z,8.16
2023-01-17T01:54:33.654Z,8.19
2023-01-17T01:57:05.239Z,8.21
2023-01-17T01:59:34.996Z,8.23
2023-01-17T02:02:03.297Z,8.24
2023-01-17T02:04:31.225Z,8.23
2023-01-17T02:07:07.373Z,8.21
2023-01-17T02:09:35.400Z,8.18
2023-01-17T02:12:05.387Z,8.15
2023-01-17T02:14:33.888Z,8.13
2023-01-17T02:17:17.395Z,8.12
2023-01-17T02:20:19.116Z,8.10
2023-01-17T02:23:24.970Z,8.07
2023-01-17T02:26:31.556Z,8.04
2023-01-17T02:29:15.102Z,8.01
2023-01-17T02:32:01.283Z,8.00
2023-01-17T02:35:09.240Z,7.98
2023-01-17T02:37:40.178Z,8.00
2023-01-17T02:40:20.479Z,8.04
2023-01-17T02:42:55.621Z,8.08
2023-01-17T02:45:23.958Z,8.11
2023-01-17T02:47:51.981Z,8.11
2023-01-17T02:50:23.920Z,8.12
2023-01-17T02:52:59.288Z,8.12
2023-01-17T02:55:48.839Z,8.12
2023-01-17T02:58:26.030Z,8.11
2023-01-17T03:01:12.518Z,8.08
2023-01-17T03:04:08.615Z,8.07
2023-01-17T03:07:00.529Z,8.09
2023-01-17T03:09:30.461Z,8.12
2023-01-17T03:12:00.102Z,8.14
2023-01-17T03:14:31.099Z,8.14
2023-01-17T03:16:59.149Z,8.14
2023-01-17T03:19:27.093Z,8.13
2023-01-17T03:21:55.354Z,8.11
2023-01-17T03:24:23.873Z,8.09
2023-01-17T03:26:52.441Z,8.07
2023-01-17T03:29:20.438Z,8.06
2023-01-17T03:31:48.415Z,8.05
2023-01-17T03:34:16.309Z,8.06
2023-01-17T03:36:44.604Z,8.06
2023-01-17T03:39:12.601Z,8.07
2023-01-17T03:41:40.826Z,8.08
2023-01-17T03:44:08.805Z,8.09
2023-01-17T03:46:37.016Z,8.10
2023-01-17T03:49:04.961Z,8.11
2023-01-17T03:51:32.760Z,8.12
2023-01-17T03:54:01.039Z,8.13
2023-01-17T03:56:28.861Z,8.13
2023-01-17T03:58:58.893Z,8.14
2023-01-17T04:01:26.810Z,8.15
2023-01-17T04:03:55.794Z,8.17
2023-01-17T04:06:23.752Z,8.18
2023-01-17T04:08:51.586Z,8.19
2023-01-17T04:11:20.350Z,8.20
2023-01-17T04:13:48.428Z,8.22
2023-01-17T04:16:18.085Z,8.26
2023-01-17T04:18:46.058Z,8.30
2023-01-17T04:21:14.005Z,8.33
2023-01-17T04:23:42.262Z,8.33
2023-01-17T04:26:12.811Z,8.34
2023-01-17T04:28:41.067Z,8.33
2023-01-17T04:31:16.298Z,8.34
2023-01-17T04:33:44.396Z,8.34
2023-01-17T04:36:12.282Z,8.34
2023-01-17T04:38:40.300Z,8.36
2023-01-17T04:41:08.159Z,8.38
2023-01-17T04:43:36.228Z,8.40
2023-01-17T04:46:06.189Z,8.42
2023-01-17T04:48:34.158Z,8.43
2023-01-17T04:51:05.539Z,8.43
2023-01-17T04:53:33.261Z,8.43
2023-01-17T04:56:01.263Z,8.41
2023-01-17T04:58:31.772Z,8.38
2023-01-17T05:01:08.556Z,8.36
2023-01-17T05:03:36.662Z,8.35
2023-01-17T05:06:04.837Z,8.35
2023-01-17T05:08:32.888Z,8.35
2023-01-17T05:11:00.833Z,8.36
2023-01-17T05:13:28.793Z,8.35
2023-01-17T05:15:58.435Z,8.33
2023-01-17T05:18:26.842Z,8.31
2023-01-17T05:21:01.678Z,8.25
2023-01-17T05:23:30.092Z,8.20
2023-01-17T05:25:58.060Z,8.16
2023-01-17T05:28:25.977Z,8.12
2023-01-17T05:30:54.897Z,8.09
2023-01-17T05:33:23.005Z,8.04
2023-01-17T05:35:51.336Z,8.00
2023-01-17T05:38:19.515Z,8.00
2023-01-17T05:40:47.546Z,7.97
2023-01-17T05:43:16.113Z,7.93
2023-01-17T05:45:43.990Z,7.88
2023-01-17T05:48:11.871Z,7.85
2023-01-17T05:50:40.129Z,7.82
2023-01-17T05:53:11.572Z,7.81
2023-01-17T05:55:40.796Z,7.79
2023-01-17T05:58:14.557Z,7.77
2023-01-17T06:00:43.365Z,7.77
2023-01-17T06:03:11.753Z,7.74
2023-01-17T06:05:41.323Z,7.72
2023-01-17T06:08:10.993Z,7.68
2023-01-17T06:10:39.540Z,7.65
2023-01-17T06:13:16.750Z,7.63
2023-01-17T06:15:44.898Z,7.63
2023-01-17T06:18:16.380Z,7.64
2023-01-17T06:20:45.069Z,7.63
2023-01-17T06:23:14.835Z,7.63
2023-01-17T06:25:47.273Z,7.65
2023-01-17T06:28:17.837Z,7.65
2023-01-17T06:30:46.475Z,7.61
2023-01-17T06:33:14.939Z,7.59
2023-01-17T06:35:53.291Z,7.59
2023-01-17T06:38:22.128Z,7.58
2023-01-17T06:40:50.317Z,7.55
2023-01-17T06:43:18.986Z,7.56
2023-01-17T06:45:47.391Z,7.55
2023-01-17T06:48:16.095Z,7.55
2023-01-17T06:50:44.610Z,7.55
2023-01-17T06:53:12.989Z,7.54
2023-01-17T06:55:43.935Z,7.55
2023-01-17T06:58:11.968Z,7.55
2023-01-17T07:00:41.110Z,7.58
2023-01-17T07:03:19.314Z,7.58
2023-01-17T07:05:48.269Z,7.59
2023-01-17T07:08:17.334Z,7.59
2023-01-17T07:10:46.644Z,7.59
2023-01-17T07:13:14.972Z,7.61
2023-01-17T07:15:42.965Z,7.63
2023-01-17T07:18:10.918Z,7.65
2023-01-17T07:20:38.814Z,7.65
2023-01-17T07:23:06.838Z,7.64
2023-01-17T07:25:35.628Z,7.63
2023-01-17T07:28:06.056Z,7.61
2023-01-17T07:30:35.254Z,7.63
2023-01-17T07:33:03.513Z,7.66
2023-01-17T07:35:31.839Z,7.68
2023-01-17T07:37:59.811Z,7.69
2023-01-17T07:40:27.785Z,7.71
2023-01-17T07:43:14.373Z,7.71
2023-01-17T07:45:45.010Z,7.71
2023-01-17T07:48:13.843Z,7.72
2023-01-17T07:50:41.818Z,7.74
2023-01-17T07:53:10.469Z,7.77
2023-01-17T07:55:38.558Z,7.79
2023-01-17T07:58:06.552Z,7.83
2023-01-17T08:00:34.578Z,7.86
2023-01-17T08:03:02.766Z,7.88
2023-01-17T08:05:30.930Z,7.90
2023-01-17T08:07:58.960Z,7.90
2023-01-17T08:10:26.835Z,7.94
2023-01-17T08:12:55.533Z,7.96
2023-01-17T08:15:26.766Z,8.01
2023-01-17T08:17:57.561Z,8.05
2023-01-17T08:20:28.132Z,8.08
2023-01-17T08:22:57.453Z,8.12
2023-01-17T08:25:26.445Z,8.13
2023-01-17T08:27:58.693Z,8.14
2023-01-17T08:30:27.459Z,8.17
2023-01-17T08:32:55.984Z,8.16
2023-01-17T08:35:26.644Z,8.18
2023-01-17T08:37:56.773Z,8.18
2023-01-17T08:40:25.251Z,8.19
2023-01-17T08:42:58.176Z,8.22
2023-01-17T08:45:27.452Z,8.24
2023-01-17T08:47:58.495Z,8.24
2023-01-17T08:50:27.030Z,8.24
2023-01-17T08:53:01.099Z,8.21
2023-01-17T08:55:29.366Z,8.20
2023-01-17T08:57:57.417Z,8.22
2023-01-17T09:00:27.141Z,8.23
2023-01-17T09:02:55.007Z,8.27
2023-01-17T09:05:23.347Z,8.29
2023-01-17T09:07:51.939Z,8.33
2023-01-17T09:10:19.941Z,8.36
2023-01-17T09:12:47.763Z,8.37
2023-01-17T09:15:20.652Z,8.39
2023-01-17T09:17:48.570Z,8.40
2023-01-17T09:20:17.884Z,8.42
2023-01-17T09:22:46.296Z,8.45
2023-01-17T09:25:14.422Z,8.48
2023-01-17T09:27:46.990Z,8.52
2023-01-17T09:30:15.744Z,8.55
2023-01-17T09:32:50.472Z,8.58
2023-01-17T09:35:26.571Z,8.56
2023-01-17T09:37:57.133Z,8.54
2023-01-17T09:40:25.677Z,8.55
2023-01-17T09:43:01.591Z,8.57
2023-01-17T09:45:34.909Z,8.59
2023-01-17T09:48:10.514Z,8.62
2023-01-17T09:50:52.158Z,8.60
2023-01-17T09:53:21.896Z,8.58
2023-01-17T09:56:04.196Z,8.60
2023-01-17T09:58:41.283Z,8.64
2023-01-17T10:01:33.426Z,8.76
2023-01-17T10:04:30.041Z,8.85
2023-01-17T10:07:31.591Z,8.87
2023-01-17T10:10:22.475Z,8.90
2023-01-17T10:13:02.502Z,8.93
2023-01-17T10:16:01.972Z,8.97
2023-01-17T10:18:37.783Z,9.02
2023-01-17T10:21:25.974Z,9.07
2023-01-17T10:24:16.434Z,9.07
2023-01-17T10:26:49.811Z,9.08
2023-01-17T10:29:21.270Z,9.10
2023-01-17T10:31:55.948Z,9.14
2023-01-17T10:34:35.684Z,9.17
2023-01-17T10:37:25.302Z,9.19
2023-01-17T10:39:57.922Z,9.23
2023-01-17T10:43:05.473Z,9.28
2023-01-17T10:45:41.444Z,9.34
2023-01-17T10:48:13.833Z,9.38
2023-01-17T10:51:29.586Z,9.39
2023-01-17T10:54:16.606Z,9.39
2023-01-17T10:56:48.443Z,9.35
2023-01-17T10:59:16.416Z,9.30
2023-01-17T11:01:44.704Z,9.29
2023-01-17T11:04:20.848Z,9.28
2023-01-17T11:07:12.093Z,9.27
2023-01-17T11:09:43.046Z,9.26
2023-01-17T11:12:30.092Z,9.24
2023-01-17T11:15:10.294Z,9.23
2023-01-17T11:17:45.938Z,9.26
2023-01-17T11:20:24.326Z,9.28
2023-01-17T11:23:16.430Z,9.24
2023-01-17T11:25:58.938Z,9.20
2023-01-17T11:28:30.671Z,9.16
2023-01-17T11:31:03.664Z,9.18
2023-01-17T11:33:45.403Z,9.15
2023-01-17T11:36:33.203Z,9.14
2023-01-17T11:39:04.264Z,9.15
2023-01-17T11:41:39.323Z,9.16
2023-01-17T11:44:32.241Z,9.16
2023-01-17T11:47:12.341Z,9.17
2023-01-17T11:49:42.558Z,9.15
2023-01-17T11:52:18.980Z,9.15
2023-01-17T11:54:48.304Z,9.17
2023-01-17T11:57:35.007Z,9.17
2023-01-17T12:00:08.919Z,9.21
2023-01-17T12:03:15.577Z,9.26
2023-01-17T12:05:56.654Z,9.27
2023-01-17T12:08:56.999Z,9.24
2023-01-17T12:12:08.484Z,9.29
2023-01-17T12:14:44.796Z,9.36
2023-01-17T12:17:25.511Z,9.37
2023-01-17T12:20:05.569Z,9.43
2023-01-17T12:22:42.358Z,9.52
2023-01-17T12:25:38.488Z,9.57
2023-01-17T12:28:24.920Z,9.57
2023-01-17T12:31:07.346Z,9.57
2023-01-17T12:33:41.366Z,9.57
2023-01-17T12:36:19.341Z,9.55
2023-01-17T12:38:48.641Z,9.54
2023-01-17T12:41:37.113Z,9.55
2023-01-17T12:44:05.623Z,9.58
2023-01-17T12:46:50.626Z,9.62
2023-01-17T12:49:25.023Z,9.63
2023-01-17T12:52:27.568Z,9.68
2023-01-17T12:54:57.649Z,9.76
2023-01-17T12:57:32.056Z,9.81
2023-01-17T13:00:07.503Z,9.84
2023-01-17T13:02:51.671Z,9.86
2023-01-17T13:05:23.805Z,9.87
2023-01-17T13:08:14.197Z,9.94
2023-01-17T13:11:03.216Z,10.01
2023-01-17T13:13:32.630Z,10.08
2023-01-17T13:16:07.646Z,10.11
2023-01-17T13:18:37.125Z,10.17
2023-01-17T13:21:33.348Z,10.21
2023-01-17T13:24:28.577Z,10.27
2023-01-17T13:26:56.528Z,10.31
2023-01-17T13:29:42.021Z,10.33
2023-01-17T13:32:28.857Z,10.35
2023-01-17T13:35:27.542Z,10.33
2023-01-17T13:38:32.986Z,10.31
2023-01-17T13:41:46.031Z,10.26
2023-01-17T13:44:21.702Z,10.23
2023-01-17T13:47:23.667Z,10.22
2023-01-17T13:49:57.384Z,10.22
2023-01-17T13:52:25.262Z,10.19
2023-01-17T13:54:57.438Z,10.17
2023-01-17T13:57:32.882Z,10.18
2023-01-17T14:00:26.613Z,10.23
2023-01-17T14:02:55.625Z,10.26
2023-01-17T14:05:30.135Z,10.27
2023-01-17T14:08:12.982Z,10.24
2023-01-17T14:10:47.176Z,10.19
2023-01-17T14:13:39.883Z,10.15
2023-01-17T14:16:31.751Z,10.20
2023-01-17T14:18:59.888Z,10.21
2023-01-17T14:21:35.533Z,10.16
2023-01-17T14:24:15.110Z,10.12
2023-01-17T14:26:54.802Z,10.07
2023-01-17T14:29:57.784Z,10.04
2023-01-17T14:32:37.464Z,10.00
2023-01-17T14:35:23.655Z,9.96
2023-01-17T14:37:54.149Z,9.94
2023-01-17T14:40:26.573Z,9.91
2023-01-17T14:43:28.839Z,9.90
2023-01-17T14:46:06.526Z,9.91
2023-01-17T14:48:39.296Z,9.89
2023-01-17T14:51:28.509Z,9.88
2023-01-17T14:54:08.030Z,9.88
2023-01-17T14:56:35.872Z,9.89
2023-01-17T14:59:17.178Z,9.88
2023-01-17T15:02:07.609Z,9.86
2023-01-17T15:04:39.953Z,9.83
2023-01-17T15:07:16.446Z,9.79
2023-01-17T15:09:45.344Z,9.77
2023-01-17T15:12:14.688Z,9.75
2023-01-17T15:14:46.223Z,9.74
2023-01-17T15:17:25.417Z,9.74
2023-01-17T15:20:03.691Z,9.74
2023-01-17T15:22:32.976Z,9.74
2023-01-17T15:25:01.982Z,9.75
2023-01-17T15:27:31.124Z,9.77
2023-01-17T15:30:02.597Z,9.80
2023-01-17T15:32:33.226Z,9.82
2023-01-17T15:35:03.208Z,9.80
2023-01-17T15:37:41.854Z,9.84
2023-01-17T15:40:18.591Z,9.85
2023-01-17T15:43:08.527Z,9.82
2023-01-17T15:45:36.499Z,9.78
2023-01-17T15:48:37.396Z,9.75
2023-01-17T15:51:05.550Z,9.71
2023-01-17T15:53:37.414Z,9.67
2023-01-17T15:56:28.075Z,9.66
2023-01-17T15:59:16.176Z,9.65
2023-01-17T16:01:54.443Z,9.62
2023-01-17T16:04:34.543Z,9.60
2023-01-17T16:07:22.382Z,9.58
2023-01-17T16:09:50.672Z,9.56
2023-01-17T16:12:18.682Z,9.52
2023-01-17T16:15:06.283Z,9.49
2023-01-17T16:17:36.051Z,9.45
2023-01-17T16:20:11.150Z,9.39
2023-01-17T16:22:40.328Z,9.35
2023-01-17T16:25:17.319Z,9.32
2023-01-17T16:27:46.374Z,9.30
2023-01-17T16:30:17.357Z,9.29
2023-01-17T16:32:50.863Z,9.27
2023-01-17T16:35:21.688Z,9.26
2023-01-17T16:37:54.559Z,9.25
2023-01-17T16:40:25.764Z,9.21
2023-01-17T16:42:56.361Z,9.18
2023-01-17T16:45:25.679Z,9.15
2023-01-17T16:47:54.459Z,9.11
2023-01-17T16:50:25.134Z,9.08
2023-01-17T16:52:54.851Z,9.06
2023-01-17T16:55:24.533Z,9.04
2023-01-17T16:57:56.424Z,9.03
2023-01-17T17:00:26.860Z,9.02
2023-01-17T17:02:54.865Z,9.01
2023-01-17T17:05:22.790Z,8.99
2023-01-17T17:07:52.734Z,8.97
2023-01-17T17:10:25.270Z,8.95
2023-01-17T17:12:53.888Z,8.94
2023-01-17T17:15:22.070Z,8.96
2023-01-17T17:17:51.135Z,9.01
2023-01-17T17:20:20.218Z,8.98
2023-01-17T17:22:52.274Z,8.93
2023-01-17T17:25:20.743Z,8.87
2023-01-17T17:27:48.915Z,8.83
2023-01-17T17:30:18.156Z,8.78
2023-01-17T17:32:49.447Z,8.73
2023-01-17T17:35:17.688Z,8.70
2023-01-17T17:37:45.638Z,8.65
2023-01-17T17:40:13.831Z,8.59
2023-01-17T17:42:43.022Z,8.56
2023-01-17T17:45:11.226Z,8.52
2023-01-17T17:47:39.332Z,8.49
2023-01-17T17:50:08.181Z,8.45
2023-01-17T17:52:36.177Z,8.42
2023-01-17T17:55:04.563Z,8.38
2023-01-17T17:57:32.540Z,8.35
2023-01-17T18:00:00.961Z,8.32
2023-01-17T18:02:28.972Z,8.30
2023-01-17T18:04:57.541Z,8.28
2023-01-17T18:07:25.474Z,8.27
2023-01-17T18:09:54.222Z,8.26
2023-01-17T18:12:22.314Z,8.24
2023-01-17T18:14:50.636Z,8.21
2023-01-17T18:17:20.555Z,8.19
2023-01-17T18:19:48.611Z,8.18
2023-01-17T18:22:16.972Z,8.18
2023-01-17T18:24:44.962Z,8.19
2023-01-17T18:27:13.171Z,8.18
2023-01-17T18:29:41.081Z,8.17
2023-01-17T18:32:09.049Z,8.15
2023-01-17T18:34:41.490Z,8.12
2023-01-17T18:37:10.067Z,8.10
2023-01-17T18:39:38.041Z,8.06
2023-01-17T18:42:06.791Z,8.01
2023-01-17T18:44:34.827Z,7.95
2023-01-17T18:47:06.964Z,7.92
2023-01-17T18:49:35.686Z,7.86
2023-01-17T18:52:05.043Z,7.83
2023-01-17T18:54:34.233Z,7.80
2023-01-17T18:57:02.377Z,7.77
2023-01-17T18:59:30.481Z,7.75
2023-01-17T19:01:58.854Z,7.73
2023-01-17T19:04:28.570Z,7.71
2023-01-17T19:06:56.760Z,7.69
2023-01-17T19:09:24.642Z,7.66
2023-01-17T19:11:53.203Z,7.63
2023-01-17T19:14:21.012Z,7.60
2023-01-17T19:16:48.828Z,7.59
2023-01-17T19:19:17.043Z,7.59
2023-01-17T19:21:45.536Z,7.58
2023-01-17T19:24:14.423Z,7.59
2023-01-17T19:26:43.733Z,7.62
2023-01-17T19:29:12.394Z,7.65
2023-01-17T19:31:44.215Z,7.68
2023-01-17T19:34:18.908Z,7.71
2023-01-17T19:36:47.926Z,7.73
2023-01-17T19:39:16.421Z,7.76
2023-01-17T19:41:45.512Z,7.78
2023-01-17T19:44:14.971Z,7.78
2023-01-17T19:46:44.550Z,7.80
2023-01-17T19:49:12.625Z,7.83
2023-01-17T19:51:40.800Z,7.90
2023-01-17T19:54:09.115Z,7.99
2023-01-17T19:56:37.113Z,8.10
2023-01-17T19:59:06.126Z,8.22
2023-01-17T20:01:35.227Z,8.35
2023-01-17T20:04:04.698Z,8.44
2023-01-17T20:06:35.603Z,8.52
2023-01-17T20:09:05.632Z,8.63
2023-01-17T20:11:33.894Z,8.73
2023-01-17T20:14:02.446Z,8.81
2023-01-17T20:16:32.135Z,8.91
2023-01-17T20:19:02.386Z,9.00
2023-01-17T20:21:31.917Z,9.11
2023-01-17T20:24:03.049Z,9.22
2023-01-17T20:26:37.305Z,9.29
2023-01-17T20:29:12.416Z,9.36
2023-01-17T20:31:42.937Z,9.45
2023-01-17T20:34:14.102Z,9.52
2023-01-17T20:36:42.813Z,9.61
2023-01-17T20:39:13.223Z,9.69
2023-01-17T20:41:43.809Z,9.75
2023-01-17T20:44:15.450Z,9.82
2023-01-17T20:46:43.802Z,9.88
2023-01-17T20:49:15.034Z,9.94
2023-01-17T20:51:45.193Z,9.98
2023-01-17T20:54:15.825Z,10.02
2023-01-17T20:56:44.245Z,10.07
2023-01-17T20:59:15.061Z,10.12
2023-01-17T21:01:44.503Z,10.18
2023-01-17T21:04:15.094Z,10.25
2023-01-17T21:06:43.777Z,10.34
2023-01-17T21:09:14.900Z,10.39
2023-01-17T21:11:43.713Z,10.44
2023-01-17T21:14:11.648Z,10.49
2023-01-17T21:16:40.022Z,10.51
2023-01-17T21:19:12.295Z,10.53
2023-01-17T21:21:40.561Z,10.55
2023-01-17T21:24:08.827Z,10.56
2023-01-17T21:26:39.163Z,10.57
2023-01-17T21:29:07.236Z,10.60
2023-01-17T21:31:36.763Z,10.65
2023-01-17T21:34:07.899Z,10.69
2023-01-17T21:36:38.379Z,10.71
2023-01-17T21:39:10.371Z,10.74
2023-01-17T21:41:41.155Z,10.77
2023-01-17T21:44:16.110Z,10.79
2023-01-17T21:46:44.240Z,10.82
2023-01-17T21:49:12.580Z,10.87
2023-01-17T21:52:04.742Z,10.92
2023-01-17T21:54:51.496Z,10.99
2023-01-17T21:57:40.917Z,11.03
2023-01-17T22:00:14.596Z,11.05
2023-01-17T22:02:46.077Z,11.08
2023-01-17T22:05:14.991Z,11.11
2023-01-17T22:08:04.011Z,11.12
2023-01-17T22:10:32.651Z,11.15
2023-01-17T22:13:00.827Z,11.22
2023-01-17T22:15:28.759Z,11.29
2023-01-17T22:17:57.288Z,11.34
2023-01-17T22:20:25.968Z,11.36
2023-01-17T22:22:54.091Z,11.39
2023-01-17T22:25:23.669Z,11.41
2023-01-17T22:27:51.929Z,11.42
2023-01-17T22:30:20.149Z,11.44
2023-01-17T22:32:48.114Z,11.44
2023-01-17T22:35:16.390Z,11.42
2023-01-17T22:37:44.666Z,11.40
2023-01-17T22:40:13.455Z,11.40
2023-01-17T22:42:42.052Z,11.41
2023-01-17T22:45:10.703Z,11.42
2023-01-17T22:47:39.093Z,11.42
2023-01-17T22:50:07.815Z,11.42
2023-01-17T22:52:36.107Z,11.42
2023-01-17T22:55:04.811Z,11.42
2023-01-17T22:57:33.219Z,11.43
2023-01-17T23:00:01.180Z,11.47
2023-01-17T23:02:29.363Z,11.55
2023-01-17T23:04:57.616Z,11.64
2023-01-17T23:07:27.198Z,11.69
2023-01-17T23:09:55.929Z,11.72
2023-01-17T23:12:24.191Z,11.73
2023-01-17T23:15:11.175Z,11.73
2023-01-17T23:17:58.248Z,11.70
2023-01-17T23:20:26.221Z,11.67
2023-01-17T23:22:54.203Z,11.66
2023-01-17T23:25:23.037Z,11.66
2023-01-17T23:28:09.478Z,11.66
2023-01-17T23:30:41.597Z,11.64
2023-01-17T23:33:12.725Z,11.62
2023-01-17T23:35:43.135Z,11.58
2023-01-17T23:38:34.037Z,11.53
2023-01-17T23:41:23.884Z,11.51
2023-01-17T23:43:59.874Z,11.51
2023-01-17T23:46:30.243Z,11.49
2023-01-17T23:48:58.386Z,11.46
2023-01-17T23:51:26.404Z,11.43
2023-01-17T23:54:05.630Z,11.40
2023-01-17T23:56:34.109Z,11.38
2023-01-17T23:59:02.051Z,11.39
